createdAt,value
2023-03-01T00:01:11.925Z,101363.00
2023-03-01T00:03:42.273Z,101358.50
2023-03-01T00:06:09.837Z,101363.44
2023-03-01T00:08:37.092Z,101356.63
2023-03-01T00:11:08.823Z,101355.53
2023-03-01T00:13:36.547Z,101346.50
2023-03-01T00:16:09.280Z,101353.44
2023-03-01T00:18:36.331Z,101353.56
2023-03-01T00:21:03.180Z,101355.56
2023-03-01T00:23:30.383Z,101345.19
2023-03-01T00:25:57.112Z,101342.84
2023-03-01T00:28:24.402Z,101345.69
2023-03-01T00:30:51.149Z,101344.91
2023-03-01T00:33:18.594Z,101339.38
2023-03-01T00:35:45.816Z,101340.97
2023-03-01T00:38:12.692Z,101343.72
2023-03-01T00:40:39.371Z,101346.50
2023-03-01T00:43:06.944Z,101344.91
2023-03-01T00:45:34.188Z,101358.53
2023-03-01T00:48:01.148Z,101344.94
2023-03-01T00:50:28.773Z,101346.03
2023-03-01T00:52:56.605Z,101339.28
2023-03-01T00:55:24.581Z,101337.69
2023-03-01T00:57:52.080Z,101334.03
2023-03-01T01:00:20.442Z,101337.72
2023-03-01T01:02:48.442Z,101338.59
2023-03-01T01:05:15.670Z,101342.81
2023-03-01T01:07:42.424Z,101336.06
2023-03-01T01:10:13.912Z,101337.88
2023-03-01T01:12:40.833Z,101338.94
2023-03-01T01:15:08.112Z,101341.81
2023-03-01T01:17:36.172Z,101336.88
2023-03-01T01:20:03.295Z,101345.06
2023-03-01T01:22:30.206Z,101347.00
2023-03-01T01:24:56.933Z,101350.69
2023-03-01T01:27:23.953Z,101343.97
2023-03-01T01:29:50.685Z,101338.22
2023-03-01T01:32:17.575Z,101329.16
2023-03-01T01:34:44.630Z,101330.97
2023-03-01T01:37:11.848Z,101336.97
2023-03-01T01:39:38.773Z,101328.22
2023-03-01T01:42:05.644Z,101321.13
2023-03-01T01:44:35.279Z,101320.38
2023-03-01T01:47:08.608Z,101320.34
2023-03-01T01:49:57.236Z,101321.81
2023-03-01T01:52:35.775Z,101313.16
2023-03-01T01:55:09.826Z,101317.38
2023-03-01T01:58:10.785Z,101299.16
2023-03-01T02:00:39.866Z,101300.13
2023-03-01T02:03:13.727Z,101299.78
2023-03-01T02:05:55.519Z,101301.59
2023-03-01T02:08:26.026Z,101295.03
2023-03-01T02:10:53.988Z,101287.66
2023-03-01T02:13:20.937Z,101283.06
2023-03-01T02:15:48.196Z,101282.31
2023-03-01T02:18:21.222Z,101282.44
2023-03-01T02:20:51.029Z,101284.31
2023-03-01T02:23:19.133Z,101289.53
2023-03-01T02:25:50.332Z,101279.41
2023-03-01T02:28:17.062Z,101276.09
2023-03-01T02:31:04.539Z,101273.38
2023-03-01T02:33:33.857Z,101276.97
2023-03-01T02:36:04.625Z,101272.25
2023-03-01T02:38:32.830Z,101276.44
2023-03-01T02:41:00.724Z,101267.03
2023-03-01T02:43:32.758Z,101259.88
2023-03-01T02:46:13.970Z,101258.06
2023-03-01T02:48:49.991Z,101254.78
2023-03-01T02:51:47.700Z,101249.06
2023-03-01T02:54:14.534Z,101243.53
2023-03-01T02:56:42.444Z,101229.34
2023-03-01T02:59:10.627Z,101215.13
2023-03-01T03:01:37.901Z,101208.19
2023-03-01T03:04:08.123Z,101205.53
2023-03-01T03:06:35.060Z,101198.56
2023-03-01T03:09:02.000Z,101198.50
2023-03-01T03:11:28.878Z,101205.38
2023-03-01T03:13:56.158Z,101200.16
2023-03-01T03:16:23.842Z,101188.91
2023-03-01T03:18:50.625Z,101181.13
2023-03-01T03:21:17.558Z,101180.03
2023-03-01T03:23:44.884Z,101168.00
2023-03-01T03:26:14.396Z,101161.31
2023-03-01T03:28:41.319Z,101171.41
2023-03-01T03:31:08.987Z,101157.59
2023-03-01T03:33:35.984Z,101154.25
2023-03-01T03:36:02.772Z,101149.84
2023-03-01T03:38:29.656Z,101155.75
2023-03-01T03:41:08.396Z,101148.94
2023-03-01T03:43:37.972Z,101159.38
2023-03-01T03:46:06.881Z,101159.47
2023-03-01T03:48:39.286Z,101155.78
2023-03-01T03:51:06.814Z,101159.25
2023-03-01T03:53:33.941Z,101162.34
2023-03-01T03:56:00.848Z,101168.13
2023-03-01T03:58:27.632Z,101158.94
2023-03-01T04:00:57.388Z,101158.09
2023-03-01T04:03:26.348Z,101158.94
2023-03-01T04:05:53.872Z,101162.41
2023-03-01T04:08:22.753Z,101160.00
2023-03-01T04:10:53.793Z,101154.03
2023-03-01T04:13:23.624Z,101143.69
2023-03-01T04:15:51.945Z,101135.91
2023-03-01T04:18:20.717Z,101139.41
2023-03-01T04:20:48.347Z,101135.47
2023-03-01T04:23:21.026Z,101138.78
2023-03-01T04:25:59.294Z,101119.31
2023-03-01T04:28:37.661Z,101125.06
2023-03-01T04:31:18.389Z,101121.97
2023-03-01T04:33:47.015Z,101121.78
2023-03-01T04:36:15.722Z,101112.22
2023-03-01T04:38:43.000Z,101111.78
2023-03-01T04:41:12.213Z,101118.88
2023-03-01T04:43:39.272Z,101120.63
2023-03-01T04:46:13.921Z,101114.03
2023-03-01T04:48:44.265Z,101114.16
2023-03-01T04:51:14.561Z,101116.84
2023-03-01T04:53:43.016Z,101116.19
2023-03-01T04:56:10.711Z,101124.00
2023-03-01T04:58:37.855Z,101123.97
2023-03-01T05:01:16.171Z,101121.44
2023-03-01T05:03:48.254Z,101140.34
2023-03-01T05:06:16.048Z,101144.63
2023-03-01T05:08:43.761Z,101139.59
2023-03-01T05:11:11.601Z,101136.94
2023-03-01T05:13:39.917Z,101136.03
2023-03-01T05:16:12.554Z,101138.59
2023-03-01T05:18:41.099Z,101132.38
2023-03-01T05:21:13.687Z,101137.69
2023-03-01T05:23:40.868Z,101131.66
2023-03-01T05:26:16.103Z,101127.59
2023-03-01T05:28:49.308Z,101130.91
2023-03-01T05:31:16.861Z,101131.84
2023-03-01T05:33:44.492Z,101124.22
2023-03-01T05:36:11.452Z,101117.44
2023-03-01T05:38:38.238Z,101112.31
2023-03-01T05:41:05.197Z,101108.16
2023-03-01T05:43:36.120Z,101111.94
2023-03-01T05:46:02.990Z,101109.25
2023-03-01T05:48:29.843Z,101115.81
2023-03-01T05:51:01.729Z,101110.75
2023-03-01T05:53:28.576Z,101106.50
2023-03-01T05:55:55.289Z,101115.84
2023-03-01T05:58:22.762Z,101115.72
2023-03-01T06:00:50.381Z,101106.00
2023-03-01T06:03:18.326Z,101119.38
2023-03-01T06:05:45.554Z,101121.81
2023-03-01T06:08:13.686Z,101125.31
2023-03-01T06:10:40.620Z,101120.34
2023-03-01T06:13:07.421Z,101119.59
2023-03-01T06:15:34.171Z,101128.94
2023-03-01T06:18:00.918Z,101125.59
2023-03-01T06:20:29.609Z,101126.63
2023-03-01T06:22:56.604Z,101120.59
2023-03-01T06:25:25.950Z,101126.84
2023-03-01T06:27:55.752Z,101135.47
2023-03-01T06:30:24.758Z,101140.94
2023-03-01T06:32:52.125Z,101137.44
2023-03-01T06:35:19.903Z,101138.31
2023-03-01T06:37:47.800Z,101147.75
2023-03-01T06:40:16.275Z,101153.84
2023-03-01T06:42:48.560Z,101143.53
2023-03-01T06:45:15.637Z,101152.31
2023-03-01T06:47:42.557Z,101165.25
2023-03-01T06:50:10.186Z,101172.13
2023-03-01T06:52:37.295Z,101175.63
2023-03-01T06:55:05.228Z,101181.63
2023-03-01T06:57:32.194Z,101181.75
2023-03-01T06:59:59.100Z,101197.41
2023-03-01T07:02:25.959Z,101202.09
2023-03-01T07:04:53.645Z,101210.66
2023-03-01T07:07:21.008Z,101220.78
2023-03-01T07:09:49.304Z,101230.22
2023-03-01T07:12:16.131Z,101245.13
2023-03-01T07:14:44.945Z,101257.06
2023-03-01T07:17:11.657Z,101253.78
2023-03-01T07:19:38.417Z,101256.13
2023-03-01T07:22:05.695Z,101258.75
2023-03-01T07:24:32.423Z,101270.03
2023-03-01T07:26:59.305Z,101262.13
2023-03-01T07:29:26.073Z,101268.84
2023-03-01T07:31:53.207Z,101282.44
2023-03-01T07:34:19.959Z,101279.88
2023-03-01T07:36:46.690Z,101288.50
2023-03-01T07:39:13.457Z,101288.66
2023-03-01T07:41:40.338Z,101295.53
2023-03-01T07:44:07.352Z,101304.72
2023-03-01T07:46:34.253Z,101308.94
2023-03-01T07:49:01.051Z,101320.00
2023-03-01T07:51:27.856Z,101325.03
2023-03-01T07:53:54.561Z,101324.03
2023-03-01T07:56:23.024Z,101328.97
2023-03-01T07:58:50.981Z,101340.78
2023-03-01T08:01:20.512Z,101345.03
2023-03-01T08:03:47.696Z,101349.38
2023-03-01T08:06:17.271Z,101355.16
2023-03-01T08:08:44.449Z,101355.72
2023-03-01T08:11:16.008Z,101365.69
2023-03-01T08:13:44.353Z,101364.69
2023-03-01T08:16:13.614Z,101371.66
2023-03-01T08:18:40.450Z,101377.56
2023-03-01T08:21:14.854Z,101380.00
2023-03-01T08:23:42.445Z,101375.69
2023-03-01T08:26:18.263Z,101368.03
2023-03-01T08:28:45.567Z,101362.06
2023-03-01T08:31:19.398Z,101371.47
2023-03-01T08:33:51.698Z,101369.69
2023-03-01T08:36:19.381Z,101366.31
2023-03-01T08:38:46.863Z,101373.00
2023-03-01T08:41:14.101Z,101370.53
2023-03-01T08:43:41.081Z,101377.25
2023-03-01T08:46:08.049Z,101366.78
2023-03-01T08:48:34.816Z,101362.34
2023-03-01T08:51:12.683Z,101362.28
2023-03-01T08:53:40.277Z,101358.72
2023-03-01T08:56:07.765Z,101357.06
2023-03-01T08:58:34.557Z,101349.53
2023-03-01T09:01:01.596Z,101353.63
2023-03-01T09:03:28.525Z,101349.34
2023-03-01T09:06:01.654Z,101356.75
2023-03-01T09:08:29.044Z,101356.38
2023-03-01T09:10:56.099Z,101351.44
2023-03-01T09:13:25.848Z,101355.19
2023-03-01T09:15:52.889Z,101352.44
2023-03-01T09:18:19.660Z,101359.81
2023-03-01T09:20:46.572Z,101355.50
2023-03-01T09:23:13.310Z,101360.78
2023-03-01T09:25:40.060Z,101361.47
2023-03-01T09:28:06.807Z,101369.09
2023-03-01T09:30:34.055Z,101371.06
2023-03-01T09:33:01.029Z,101370.84
2023-03-01T09:35:27.953Z,101381.25
2023-03-01T09:37:54.704Z,101388.06
2023-03-01T09:40:25.287Z,101383.03
2023-03-01T09:43:15.277Z,101395.28
2023-03-01T09:45:46.719Z,101390.81
2023-03-01T09:48:19.990Z,101390.50
2023-03-01T09:50:47.882Z,101392.06
2023-03-01T09:53:21.234Z,101395.47
2023-03-01T09:56:19.930Z,101405.66
2023-03-01T09:58:55.687Z,101398.75
2023-03-01T10:01:22.401Z,101395.34
2023-03-01T10:04:20.260Z,101395.94
2023-03-01T10:07:02.093Z,101395.94
2023-03-01T10:09:34.717Z,101392.44
2023-03-01T10:12:03.452Z,101385.63
2023-03-01T10:14:43.160Z,101383.13
2023-03-01T10:17:57.553Z,101379.38
2023-03-01T10:20:27.149Z,101385.22
2023-03-01T10:22:56.219Z,101381.25
2023-03-01T10:25:42.483Z,101380.16
2023-03-01T10:28:24.319Z,101373.63
2023-03-01T10:30:52.483Z,101366.38
2023-03-01T10:33:40.712Z,101372.19
2023-03-01T10:36:08.394Z,101370.41
2023-03-01T10:38:54.892Z,101366.50
2023-03-01T10:41:24.446Z,101357.81
2023-03-01T10:43:55.701Z,101370.41
2023-03-01T10:46:34.036Z,101356.50
2023-03-01T10:49:17.656Z,101360.59
2023-03-01T10:51:48.073Z,101360.59
2023-03-01T10:54:23.357Z,101363.63
2023-03-01T10:56:56.652Z,101356.59
2023-03-01T10:59:29.340Z,101353.63
2023-03-01T11:02:24.123Z,101355.41
2023-03-01T11:04:58.209Z,101352.09
2023-03-01T11:07:25.501Z,101341.91
2023-03-01T11:09:52.223Z,101336.59
2023-03-01T11:12:19.434Z,101332.31
2023-03-01T11:14:51.782Z,101329.81
2023-03-01T11:17:53.642Z,101328.41
2023-03-01T11:20:38.986Z,101339.94
2023-03-01T11:23:12.093Z,101342.13
2023-03-01T11:25:43.104Z,101344.03
2023-03-01T11:28:16.239Z,101347.63
2023-03-01T11:31:07.845Z,101355.31
2023-03-01T11:33:43.593Z,101358.94
2023-03-01T11:36:34.243Z,101368.25
2023-03-01T11:39:20.476Z,101373.34
2023-03-01T11:41:53.262Z,101375.16
2023-03-01T11:44:26.491Z,101371.00
2023-03-01T11:47:18.044Z,101369.41
2023-03-01T11:49:56.553Z,101365.03
2023-03-01T11:52:41.634Z,101368.53
2023-03-01T11:55:44.030Z,101372.91
2023-03-01T11:58:29.451Z,101358.59
2023-03-01T12:01:44.891Z,101358.66
2023-03-01T12:04:30.266Z,101360.34
2023-03-01T12:07:00.988Z,101358.38
2023-03-01T12:09:51.356Z,101362.72
2023-03-01T12:12:30.145Z,101368.66
2023-03-01T12:15:19.223Z,101363.56
2023-03-01T12:17:56.616Z,101361.75
2023-03-01T12:20:23.431Z,101364.63
2023-03-01T12:23:21.307Z,101360.16
2023-03-01T12:26:15.769Z,101355.09
2023-03-01T12:29:01.872Z,101354.38
2023-03-01T12:31:41.025Z,101349.31
2023-03-01T12:34:14.106Z,101345.31
2023-03-01T12:36:59.204Z,101338.34
2023-03-01T12:39:59.048Z,101335.47
2023-03-01T12:42:34.834Z,101336.75
2023-03-01T12:45:13.598Z,101329.78
2023-03-01T12:48:12.825Z,101316.72
2023-03-01T12:50:45.142Z,101324.34
2023-03-01T12:53:24.924Z,101319.94
2023-03-01T12:55:55.236Z,101318.25
2023-03-01T12:58:36.991Z,101319.00
2023-03-01T13:01:27.812Z,101323.94
2023-03-01T13:04:09.229Z,101310.25
2023-03-01T13:06:56.196Z,101312.75
2023-03-01T13:09:25.960Z,101311.81
2023-03-01T13:11:53.130Z,101309.94
2023-03-01T13:14:23.953Z,101303.22
2023-03-01T13:16:54.587Z,101286.94
2023-03-01T13:19:26.372Z,101289.50
2023-03-01T13:21:55.830Z,101285.13
2023-03-01T13:24:38.859Z,101290.22
2023-03-01T13:27:09.381Z,101281.72
2023-03-01T13:30:35.025Z,101276.72
2023-03-01T13:33:35.294Z,101284.47
2023-03-01T13:36:02.839Z,101283.94
2023-03-01T13:38:58.541Z,101281.66
2023-03-01T13:41:43.762Z,101275.09
2023-03-01T13:44:30.000Z,101272.69
2023-03-01T13:47:13.670Z,101272.53
2023-03-01T13:49:46.505Z,101273.19
2023-03-01T13:52:43.409Z,101269.78
2023-03-01T13:55:17.776Z,101272.53
2023-03-01T13:57:49.006Z,101270.13
2023-03-01T14:00:30.924Z,101270.31
2023-03-01T14:03:06.109Z,101269.06
2023-03-01T14:05:34.959Z,101258.53
2023-03-01T14:08:01.914Z,101265.34
2023-03-01T14:10:44.520Z,101265.31
2023-03-01T14:13:30.239Z,101264.47
2023-03-01T14:16:25.918Z,101268.78
2023-03-01T14:19:32.582Z,101266.38
2023-03-01T14:22:22.162Z,101269.97
2023-03-01T14:25:04.300Z,101279.16
2023-03-01T14:27:40.592Z,101278.22
2023-03-01T14:30:15.706Z,101278.28
2023-03-01T14:32:42.755Z,101266.63
2023-03-01T14:35:25.103Z,101264.75
2023-03-01T14:37:52.104Z,101261.41
2023-03-01T14:40:25.629Z,101270.66
2023-03-01T14:42:53.491Z,101263.88
2023-03-01T14:45:21.337Z,101262.28
2023-03-01T14:47:49.644Z,101261.41
2023-03-01T14:50:23.398Z,101264.09
2023-03-01T14:52:53.304Z,101252.25
2023-03-01T14:55:30.575Z,101243.88
2023-03-01T14:57:58.361Z,101245.34
2023-03-01T15:00:31.114Z,101242.03
2023-03-01T15:03:04.246Z,101238.13
2023-03-01T15:05:33.226Z,101243.22
2023-03-01T15:08:02.602Z,101236.41
2023-03-01T15:10:35.951Z,101228.91
2023-03-01T15:13:22.723Z,101233.88
2023-03-01T15:15:54.851Z,101222.19
2023-03-01T15:18:27.019Z,101224.47
2023-03-01T15:20:54.674Z,101223.34
2023-03-01T15:23:28.396Z,101211.56
2023-03-01T15:25:59.288Z,101208.31
2023-03-01T15:28:29.399Z,101210.19
2023-03-01T15:31:16.505Z,101205.13
2023-03-01T15:33:48.182Z,101213.13
2023-03-01T15:36:34.088Z,101196.03
2023-03-01T15:39:02.124Z,101184.06
2023-03-01T15:41:32.151Z,101190.69
2023-03-01T15:44:00.675Z,101205.31
2023-03-01T15:46:38.689Z,101201.06
2023-03-01T15:49:26.259Z,101208.13
2023-03-01T15:51:56.073Z,101204.69
2023-03-01T15:54:26.170Z,101199.28
2023-03-01T15:56:53.325Z,101203.75
2023-03-01T15:59:20.126Z,101204.00
2023-03-01T16:01:49.840Z,101199.44
2023-03-01T16:04:23.850Z,101207.19
2023-03-01T16:06:55.234Z,101204.09
2023-03-01T16:09:26.268Z,101207.63
2023-03-01T16:11:54.500Z,101205.44
2023-03-01T16:14:22.057Z,101202.06
2023-03-01T16:16:49.814Z,101194.44
2023-03-01T16:19:17.095Z,101200.34
2023-03-01T16:21:44.841Z,101194.19
2023-03-01T16:24:11.675Z,101203.94
2023-03-01T16:26:38.823Z,101211.69
2023-03-01T16:29:06.066Z,101207.56
2023-03-01T16:31:33.797Z,101204.31
2023-03-01T16:34:01.287Z,101196.69
2023-03-01T16:36:31.626Z,101195.63
2023-03-01T16:39:01.510Z,101203.41
2023-03-01T16:41:28.842Z,101205.81
2023-03-01T16:43:55.716Z,101204.19
2023-03-01T16:46:25.391Z,101206.09
2023-03-01T16:48:53.304Z,101209.53
2023-03-01T16:51:20.975Z,101206.13
2023-03-01T16:53:47.961Z,101206.09
2023-03-01T16:56:15.544Z,101211.22
2023-03-01T16:58:42.527Z,101213.78
2023-03-01T17:01:20.873Z,101206.94
2023-03-01T17:03:49.771Z,101205.88
2023-03-01T17:06:21.385Z,101215.19
2023-03-01T17:08:48.261Z,101217.06
2023-03-01T17:11:18.656Z,101224.69
2023-03-01T17:13:45.472Z,101230.47
2023-03-01T17:16:15.427Z,101232.75
2023-03-01T17:18:43.036Z,101242.75
2023-03-01T17:21:10.312Z,101248.72
2023-03-01T17:23:39.738Z,101252.25
2023-03-01T17:26:07.626Z,101253.84
2023-03-01T17:28:36.392Z,101264.91
2023-03-01T17:31:05.520Z,101260.16
2023-03-01T17:33:33.077Z,101254.72
2023-03-01T17:36:00.792Z,101267.59
2023-03-01T17:38:28.107Z,101260.09
2023-03-01T17:40:55.056Z,101270.88
2023-03-01T17:43:22.500Z,101279.50
2023-03-01T17:45:51.594Z,101277.09
2023-03-01T17:48:19.018Z,101271.22
2023-03-01T17:50:46.086Z,101274.81
2023-03-01T17:53:13.776Z,101268.13
2023-03-01T17:55:42.541Z,101281.94
2023-03-01T17:58:12.506Z,101296.41
2023-03-01T18:00:40.077Z,101291.31
2023-03-01T18:03:07.325Z,101289.84
2023-03-01T18:05:36.031Z,101287.31
2023-03-01T18:08:03.058Z,101296.75
2023-03-01T18:10:31.249Z,101295.81
2023-03-01T18:12:58.067Z,101297.63
2023-03-01T18:15:24.977Z,101291.03
2023-03-01T18:17:51.753Z,101296.13
2023-03-01T18:20:19.451Z,101303.72
2023-03-01T18:22:46.547Z,101302.91
2023-03-01T18:25:13.817Z,101309.94
2023-03-01T18:27:40.692Z,101322.41
2023-03-01T18:30:09.156Z,101326.53
2023-03-01T18:32:36.110Z,101325.63
2023-03-01T18:35:03.600Z,101328.22
2023-03-01T18:37:30.619Z,101330.72
2023-03-01T18:39:57.493Z,101334.84
2023-03-01T18:42:24.509Z,101336.69
2023-03-01T18:44:51.584Z,101344.44
2023-03-01T18:47:18.359Z,101347.53
2023-03-01T18:49:45.290Z,101350.81
2023-03-01T18:52:12.236Z,101347.91
2023-03-01T18:54:39.150Z,101343.63
2023-03-01T18:57:05.898Z,101337.41
2023-03-01T18:59:33.443Z,101338.91
2023-03-01T19:02:00.422Z,101343.00
2023-03-01T19:04:27.625Z,101348.63
2023-03-01T19:06:54.498Z,101347.78
2023-03-01T19:09:21.316Z,101344.72
2023-03-01T19:11:48.068Z,101346.47
2023-03-01T19:14:14.951Z,101352.03
2023-03-01T19:16:41.756Z,101346.47
2023-03-01T19:19:10.124Z,101352.63
2023-03-01T19:21:37.315Z,101352.19
2023-03-01T19:24:04.692Z,101346.00
2023-03-01T19:26:32.879Z,101344.28
2023-03-01T19:29:00.734Z,101353.28
2023-03-01T19:31:30.169Z,101348.56
2023-03-01T19:34:16.035Z,101348.56
2023-03-01T19:36:45.020Z,101354.88
2023-03-01T19:39:14.405Z,101347.91
2023-03-01T19:41:42.903Z,101345.44
2023-03-01T19:44:10.825Z,101356.13
2023-03-01T19:46:41.098Z,101366.34
2023-03-01T19:49:08.838Z,101353.72
2023-03-01T19:51:39.191Z,101352.56
2023-03-01T19:54:06.702Z,101356.50
2023-03-01T19:56:34.865Z,101362.66
2023-03-01T19:59:04.712Z,101365.03
2023-03-01T20:01:34.711Z,101362.22
2023-03-01T20:04:02.791Z,101364.53
2023-03-01T20:06:30.484Z,101363.44
2023-03-01T20:08:57.955Z,101365.59
2023-03-01T20:11:25.572Z,101369.59
2023-03-01T20:13:52.504Z,101372.47
2023-03-01T20:16:20.360Z,101369.16
2023-03-01T20:18:47.209Z,101373.41
2023-03-01T20:21:24.120Z,101378.44
2023-03-01T20:23:52.931Z,101385.00
2023-03-01T20:26:21.989Z,101381.84
2023-03-01T20:28:52.832Z,101385.56
2023-03-01T20:31:22.184Z,101388.97
2023-03-01T20:33:49.735Z,101391.72
2023-03-01T20:36:17.424Z,101395.34
2023-03-01T20:38:45.539Z,101392.09
2023-03-01T20:41:14.440Z,101397.88
2023-03-01T20:43:44.976Z,101396.38
2023-03-01T20:46:15.210Z,101392.97
2023-03-01T20:48:43.313Z,101401.13
2023-03-01T20:51:12.480Z,101396.53
2023-03-01T20:53:40.536Z,101397.41
2023-03-01T20:56:14.206Z,101393.72
2023-03-01T20:58:46.166Z,101394.16
2023-03-01T21:01:56.549Z,101402.69
2023-03-01T21:04:23.708Z,101409.19
2023-03-01T21:06:50.719Z,101407.94
2023-03-01T21:09:17.895Z,101405.88
2023-03-01T21:11:45.928Z,101405.19
2023-03-01T21:14:12.960Z,101405.09
2023-03-01T21:16:40.020Z,101401.44
2023-03-01T21:19:07.559Z,101405.88
2023-03-01T21:21:34.598Z,101403.50
2023-03-01T21:24:01.815Z,101407.41
2023-03-01T21:26:30.484Z,101397.50
2023-03-01T21:29:03.122Z,101403.84
2023-03-01T21:31:35.328Z,101401.94
2023-03-01T21:34:06.032Z,101400.53
2023-03-01T21:36:35.952Z,101394.81
2023-03-01T21:39:07.016Z,101401.88
2023-03-01T21:41:41.117Z,101404.41
2023-03-01T21:44:13.900Z,101412.75
2023-03-01T21:46:42.977Z,101409.56
2023-03-01T21:49:11.300Z,101399.56
2023-03-01T21:51:39.639Z,101400.78
2023-03-01T21:54:09.528Z,101398.34
2023-03-01T21:56:39.808Z,101403.84
2023-03-01T21:59:15.362Z,101398.59
2023-03-01T22:01:43.109Z,101395.13
2023-03-01T22:04:10.925Z,101395.13
2023-03-01T22:06:41.346Z,101391.06
2023-03-01T22:09:16.827Z,101401.13
2023-03-01T22:11:47.226Z,101403.31
2023-03-01T22:14:14.846Z,101396.59
2023-03-01T22:16:46.211Z,101396.34
2023-03-01T22:19:16.236Z,101393.63
2023-03-01T22:21:45.454Z,101386.41
2023-03-01T22:24:13.744Z,101377.94
2023-03-01T22:26:43.616Z,101387.06
2023-03-01T22:29:15.111Z,101383.38
2023-03-01T22:31:42.679Z,101377.28
2023-03-01T22:34:10.327Z,101375.03
2023-03-01T22:36:39.461Z,101370.38
2023-03-01T22:39:06.720Z,101373.44
2023-03-01T22:41:37.610Z,101374.56
2023-03-01T22:44:04.843Z,101370.00
2023-03-01T22:46:32.311Z,101359.34
2023-03-01T22:48:59.592Z,101365.47
2023-03-01T22:51:32.485Z,101357.09
2023-03-01T22:53:59.880Z,101361.28
2023-03-01T22:56:30.615Z,101365.50
2023-03-01T22:59:03.160Z,101363.06
2023-03-01T23:01:31.164Z,101360.19
2023-03-01T23:03:58.395Z,101358.69
2023-03-01T23:06:25.515Z,101358.84
2023-03-01T23:08:54.548Z,101363.81
2023-03-01T23:11:22.590Z,101363.06
2023-03-01T23:13:50.155Z,101359.72
2023-03-01T23:16:18.334Z,101363.59
2023-03-01T23:18:45.518Z,101361.63
2023-03-01T23:21:18.347Z,101364.16
2023-03-01T23:23:47.274Z,101360.59
2023-03-01T23:26:15.259Z,101361.81
2023-03-01T23:28:42.976Z,101363.81
2023-03-01T23:31:13.913Z,101359.72
2023-03-01T23:33:43.325Z,101361.47
2023-03-01T23:36:15.955Z,101366.69
2023-03-01T23:38:42.809Z,101364.44
2023-03-01T23:41:16.071Z,101373.44
2023-03-01T23:43:47.605Z,101371.88
2023-03-01T23:46:16.040Z,101378.34
2023-03-01T23:48:43.776Z,101383.34
2023-03-01T23:51:11.786Z,101378.25
2023-03-01T23:53:44.964Z,101383.34
2023-03-01T23:56:13.684Z,101384.91
2023-03-01T23:58:43.412Z,101381.47
